SY-0002 weather

Public forecast

Using degrees Celsius for public forecast. Weather courtesy of forecast.io.

Closest aviation weather report (METAR) to Qabr al-Sitt Heliport

Closest report is Damascus International Airport, 8.4 nm (15.6 km) ESE. Retrieved 2020/08/09 19:00 UTC (52 minutes ago):

OSDI 091900Z 23014KT CAVOK 24/15 Q1007

Closest aviation forecast (TAF) to Qabr al-Sitt Heliport

Forecast is more than 12 hours old.

Closest forecast is Damascus International Airport, 8.4 nm (15.6 km) ESE. Retrieved 2020/08/09 06:00 UTC (14 hours ago):

TAF OSDI 090500Z 0906/1012 22010KT CAVOK TEMPO 0912/0918 24015G25KT 9999 FEW030